createdAt,value
2022-10-12T00:02:10.333Z,60.91
2022-10-12T00:04:39.360Z,60.55
2022-10-12T00:07:08.610Z,61.24
2022-10-12T00:09:39.499Z,61.02
2022-10-12T00:12:09.710Z,61.21
2022-10-12T00:14:39.843Z,61.99
2022-10-12T00:17:08.841Z,61.76
2022-10-12T00:19:37.587Z,62.21
2022-10-12T00:22:07.066Z,62.33
2022-10-12T00:24:39.317Z,62.39
2022-10-12T00:27:11.019Z,61.84
2022-10-12T00:29:41.217Z,62.48
2022-10-12T00:32:11.047Z,61.09
2022-10-12T00:34:40.967Z,61.21
2022-10-12T00:37:10.670Z,62.73
2022-10-12T00:39:39.236Z,61.72
2022-10-12T00:42:08.280Z,61.37
2022-10-12T00:44:45.137Z,60.78
2022-10-12T00:47:24.183Z,61.31
2022-10-12T00:50:17.091Z,62.26
2022-10-12T00:52:53.944Z,62.71
2022-10-12T00:55:25.293Z,62.17
2022-10-12T00:57:55.728Z,61.64
2022-10-12T01:00:24.655Z,62.77
2022-10-12T01:02:54.454Z,62.41
2022-10-12T01:05:24.796Z,63.02
2022-10-12T01:07:55.441Z,62.84
2022-10-12T01:10:25.492Z,62.88
2022-10-12T01:12:55.885Z,62.20
2022-10-12T01:15:34.261Z,61.37
2022-10-12T01:18:28.160Z,62.00
2022-10-12T01:21:07.937Z,62.31
2022-10-12T01:23:54.973Z,62.41
2022-10-12T01:26:30.073Z,61.97
2022-10-12T01:29:25.929Z,62.46
2022-10-12T01:32:10.932Z,61.77
2022-10-12T01:34:52.632Z,63.13
2022-10-12T01:37:28.605Z,62.50
2022-10-12T01:40:00.227Z,62.35
2022-10-12T01:42:40.566Z,62.53
2022-10-12T01:45:19.232Z,63.03
2022-10-12T01:47:53.735Z,62.97
2022-10-12T01:50:22.846Z,62.30
2022-10-12T01:52:54.599Z,60.96
2022-10-12T01:55:41.187Z,60.37
2022-10-12T01:58:13.189Z,60.97
2022-10-12T02:00:47.098Z,61.20
2022-10-12T02:03:23.202Z,61.38
2022-10-12T02:06:13.687Z,60.72
2022-10-12T02:08:51.084Z,61.90
2022-10-12T02:11:24.340Z,62.70
2022-10-12T02:14:03.476Z,62.86
2022-10-12T02:16:38.270Z,61.57
2022-10-12T02:19:08.230Z,62.16
2022-10-12T02:21:36.384Z,62.47
2022-10-12T02:24:07.036Z,62.50
2022-10-12T02:26:36.604Z,62.79
2022-10-12T02:29:06.831Z,62.07
2022-10-12T02:31:57.042Z,62.46
2022-10-12T02:34:45.469Z,62.66
2022-10-12T02:37:25.972Z,62.86
2022-10-12T02:39:57.136Z,62.90
2022-10-12T02:42:41.908Z,62.82
2022-10-12T02:45:19.959Z,62.29
2022-10-12T02:47:50.340Z,61.79
2022-10-12T02:50:18.391Z,61.67
2022-10-12T02:52:49.782Z,61.53
2022-10-12T02:55:17.931Z,62.19
2022-10-12T02:57:46.222Z,62.26
2022-10-12T03:00:14.857Z,63.58
2022-10-12T03:02:42.783Z,61.78
2022-10-12T03:05:11.004Z,62.62
2022-10-12T03:07:40.455Z,62.36
2022-10-12T03:10:08.841Z,61.77
2022-10-12T03:12:39.550Z,62.79
2022-10-12T03:15:10.764Z,63.17
2022-10-12T03:17:38.877Z,62.47
2022-10-12T03:20:07.560Z,61.24
2022-10-12T03:22:35.247Z,61.69
2022-10-12T03:25:06.161Z,61.43
2022-10-12T03:27:34.653Z,62.46
2022-10-12T03:30:02.171Z,62.05
2022-10-12T03:32:29.990Z,62.08
2022-10-12T03:34:58.112Z,62.16
2022-10-12T03:37:25.884Z,63.00
2022-10-12T03:39:54.761Z,63.42
2022-10-12T03:42:22.595Z,62.96
2022-10-12T03:44:50.531Z,62.86
2022-10-12T03:47:18.548Z,62.94
2022-10-12T03:49:45.997Z,63.15
2022-10-12T03:52:14.963Z,62.66
2022-10-12T03:54:43.162Z,63.64
2022-10-12T03:57:10.977Z,62.23
2022-10-12T03:59:38.552Z,61.07
2022-10-12T04:02:06.953Z,62.11
2022-10-12T04:04:35.593Z,62.48
2022-10-12T04:07:03.722Z,63.04
2022-10-12T04:09:33.143Z,62.57
2022-10-12T04:12:01.309Z,62.03
2022-10-12T04:14:29.487Z,62.39
2022-10-12T04:16:57.541Z,62.70
2022-10-12T04:19:25.650Z,62.88
2022-10-12T04:21:53.400Z,63.38
2022-10-12T04:24:22.895Z,63.22
2022-10-12T04:26:51.882Z,62.46
2022-10-12T04:29:19.808Z,62.62
2022-10-12T04:31:47.407Z,63.47
2022-10-12T04:34:15.556Z,63.10
2022-10-12T04:36:43.124Z,63.62
2022-10-12T04:39:10.648Z,63.19
2022-10-12T04:41:39.775Z,62.60
2022-10-12T04:44:08.517Z,62.30
2022-10-12T04:46:36.301Z,62.31
2022-10-12T04:49:04.575Z,60.54
2022-10-12T04:51:32.503Z,61.20
2022-10-12T04:54:00.269Z,61.67
2022-10-12T04:56:28.837Z,61.30
2022-10-12T04:58:56.382Z,62.02
2022-10-12T05:01:23.952Z,61.78
2022-10-12T05:03:52.013Z,62.88
2022-10-12T05:06:19.772Z,62.95
2022-10-12T05:08:47.568Z,62.53
2022-10-12T05:11:15.487Z,62.57
2022-10-12T05:13:43.175Z,62.67
2022-10-12T05:16:10.921Z,63.41
2022-10-12T05:18:38.960Z,63.36
2022-10-12T05:21:06.931Z,62.66
2022-10-12T05:23:37.361Z,62.36
2022-10-12T05:26:06.191Z,61.70
2022-10-12T05:28:39.846Z,62.32
2022-10-12T05:31:08.897Z,62.60
2022-10-12T05:33:36.971Z,62.92
2022-10-12T05:36:05.140Z,63.39
2022-10-12T05:38:33.036Z,62.78
2022-10-12T05:41:01.113Z,62.95
2022-10-12T05:43:29.329Z,63.60
2022-10-12T05:45:57.961Z,63.27
2022-10-12T05:48:26.149Z,63.39
2022-10-12T05:50:54.958Z,62.77
2022-10-12T05:53:23.822Z,62.49
2022-10-12T05:55:55.197Z,61.96
2022-10-12T05:58:23.631Z,61.76
2022-10-12T06:00:51.520Z,61.29
2022-10-12T06:03:22.929Z,61.52
2022-10-12T06:05:53.272Z,61.95
2022-10-12T06:08:21.554Z,61.20
2022-10-12T06:10:51.456Z,60.95
2022-10-12T06:13:19.865Z,60.28
2022-10-12T06:15:48.521Z,59.84
2022-10-12T06:18:16.918Z,59.92
2022-10-12T06:21:03.998Z,60.46
2022-10-12T06:23:41.233Z,59.95
2022-10-12T06:26:09.179Z,59.86
2022-10-12T06:28:37.003Z,59.37
2022-10-12T06:31:05.679Z,59.33
2022-10-12T06:33:33.665Z,58.79
2022-10-12T06:36:01.309Z,58.46
2022-10-12T06:38:29.409Z,58.37
2022-10-12T06:40:57.087Z,57.64
2022-10-12T06:43:25.190Z,56.92
2022-10-12T06:45:53.812Z,57.13
2022-10-12T06:48:21.828Z,56.55
2022-10-12T06:50:50.157Z,56.19
2022-10-12T06:53:20.772Z,56.22
2022-10-12T06:55:49.109Z,55.53
2022-10-12T06:58:16.714Z,55.67
2022-10-12T07:00:44.754Z,54.99
2022-10-12T07:03:13.405Z,55.02
2022-10-12T07:05:41.142Z,54.83
2022-10-12T07:08:09.138Z,54.55
2022-10-12T07:10:37.018Z,53.73
2022-10-12T07:13:05.594Z,53.36
2022-10-12T07:15:33.581Z,53.37
2022-10-12T07:18:01.151Z,53.24
2022-10-12T07:20:28.866Z,52.54
2022-10-12T07:22:57.173Z,52.53
2022-10-12T07:25:25.308Z,52.46
2022-10-12T07:27:53.275Z,52.84
2022-10-12T07:30:21.330Z,53.15
2022-10-12T07:32:49.375Z,52.96
2022-10-12T07:35:17.147Z,52.27
2022-10-12T07:37:45.958Z,52.35
2022-10-12T07:40:13.695Z,51.56
2022-10-12T07:42:59.217Z,51.54
2022-10-12T07:45:29.879Z,51.26
2022-10-12T07:47:57.987Z,50.70
2022-10-12T07:50:26.150Z,49.90
2022-10-12T07:52:54.784Z,50.30
2022-10-12T07:55:22.477Z,50.50
2022-10-12T07:57:50.030Z,49.87
2022-10-12T08:00:17.981Z,49.04
2022-10-12T08:02:46.327Z,48.98
2022-10-12T08:05:13.792Z,48.99
2022-10-12T08:07:41.806Z,48.51
2022-10-12T08:10:10.559Z,48.13
2022-10-12T08:12:38.830Z,47.64
2022-10-12T08:15:07.155Z,47.64
2022-10-12T08:17:34.909Z,47.71
2022-10-12T08:20:02.653Z,47.65
2022-10-12T08:22:30.497Z,47.87
2022-10-12T08:24:58.646Z,47.56
2022-10-12T08:27:26.259Z,47.46
2022-10-12T08:29:53.742Z,47.38
2022-10-12T08:32:21.659Z,46.91
2022-10-12T08:34:49.477Z,46.82
2022-10-12T08:37:17.160Z,46.15
2022-10-12T08:39:44.976Z,46.32
2022-10-12T08:42:33.595Z,46.01
2022-10-12T08:45:25.508Z,45.33
2022-10-12T08:48:00.646Z,45.25
2022-10-12T08:50:38.581Z,45.57
2022-10-12T08:53:23.172Z,46.02
2022-10-12T08:55:52.811Z,45.69
2022-10-12T08:58:40.702Z,45.70
2022-10-12T09:01:22.264Z,45.67
2022-10-12T09:03:52.795Z,45.77
2022-10-12T09:06:23.409Z,45.04
2022-10-12T09:09:03.891Z,45.16
2022-10-12T09:11:59.271Z,45.11
2022-10-12T09:14:36.106Z,44.84
2022-10-12T09:17:38.265Z,44.91
2022-10-12T09:20:14.486Z,45.53
2022-10-12T09:22:45.744Z,45.81
2022-10-12T09:25:15.960Z,45.55
2022-10-12T09:27:46.870Z,45.35
2022-10-12T09:30:16.874Z,45.03
2022-10-12T09:32:56.050Z,45.16
2022-10-12T09:35:24.684Z,45.11
2022-10-12T09:37:54.006Z,45.37
2022-10-12T09:40:31.136Z,45.26
2022-10-12T09:43:01.285Z,45.19
2022-10-12T09:45:31.363Z,45.52
2022-10-12T09:48:21.841Z,45.09
2022-10-12T09:50:57.858Z,44.79
2022-10-12T09:53:34.668Z,44.91
2022-10-12T09:56:10.770Z,44.57
2022-10-12T09:58:53.702Z,44.21
2022-10-12T10:01:25.503Z,43.74
2022-10-12T10:04:10.141Z,43.53
2022-10-12T10:06:40.267Z,43.70
2022-10-12T10:09:26.330Z,43.29
2022-10-12T10:11:54.307Z,43.00
2022-10-12T10:14:22.581Z,42.94
2022-10-12T10:16:51.909Z,42.46
2022-10-12T10:19:22.212Z,42.63
2022-10-12T10:21:50.181Z,42.14
2022-10-12T10:24:25.932Z,42.17
2022-10-12T10:26:59.836Z,41.84
2022-10-12T10:29:30.417Z,41.36
2022-10-12T10:32:26.634Z,41.84
2022-10-12T10:35:22.583Z,40.96
2022-10-12T10:38:01.129Z,41.33
2022-10-12T10:40:31.302Z,42.25
2022-10-12T10:43:04.169Z,41.58
2022-10-12T10:45:43.368Z,41.39
2022-10-12T10:48:16.895Z,41.32
2022-10-12T10:50:56.661Z,40.80
2022-10-12T10:53:26.743Z,41.15
2022-10-12T10:56:02.941Z,41.05
2022-10-12T10:58:45.894Z,40.52
2022-10-12T11:01:16.928Z,40.99
2022-10-12T11:03:47.096Z,40.89
2022-10-12T11:06:33.314Z,40.97
2022-10-12T11:09:19.443Z,41.04
2022-10-12T11:11:54.565Z,41.30
2022-10-12T11:14:27.847Z,40.82
2022-10-12T11:17:20.575Z,40.33
2022-10-12T11:20:17.330Z,40.30
2022-10-12T11:22:54.308Z,40.01
2022-10-12T11:25:28.453Z,39.68
2022-10-12T11:27:56.301Z,39.90
2022-10-12T11:30:27.236Z,40.08
2022-10-12T11:33:01.630Z,40.03
2022-10-12T11:35:34.664Z,39.86
2022-10-12T11:38:15.461Z,40.03
2022-10-12T11:41:09.194Z,40.04
2022-10-12T11:43:55.774Z,40.08
2022-10-12T11:46:43.366Z,40.01
2022-10-12T11:49:22.989Z,40.11
2022-10-12T11:51:51.664Z,39.95
2022-10-12T11:54:28.172Z,39.56
2022-10-12T11:56:59.263Z,39.30
2022-10-12T11:59:35.059Z,39.62
2022-10-12T12:02:12.008Z,39.35
2022-10-12T12:04:44.314Z,39.01
2022-10-12T12:07:39.253Z,38.45
2022-10-12T12:10:26.702Z,37.96
2022-10-12T12:13:13.213Z,38.02
2022-10-12T12:16:13.143Z,38.14
2022-10-12T12:19:11.245Z,38.22
2022-10-12T12:22:13.670Z,38.57
2022-10-12T12:24:52.302Z,38.15
2022-10-12T12:27:22.206Z,38.84
2022-10-12T12:29:51.888Z,38.24
2022-10-12T12:32:20.411Z,37.83
2022-10-12T12:34:56.638Z,37.78
2022-10-12T12:37:32.155Z,37.47
2022-10-12T12:40:00.027Z,37.78
2022-10-12T12:42:32.202Z,38.74
2022-10-12T12:45:39.348Z,38.32
2022-10-12T12:48:10.943Z,38.32
2022-10-12T12:50:39.035Z,38.27
2022-10-12T12:53:13.605Z,38.38
2022-10-12T12:55:53.401Z,38.26
2022-10-12T12:58:49.770Z,37.91
2022-10-12T13:01:27.709Z,38.30
2022-10-12T13:04:14.346Z,37.89
2022-10-12T13:06:57.580Z,37.67
2022-10-12T13:09:25.587Z,37.43
2022-10-12T13:12:34.366Z,37.34
2022-10-12T13:15:12.632Z,37.15
2022-10-12T13:17:50.795Z,37.16
2022-10-12T13:20:21.872Z,37.06
2022-10-12T13:22:50.537Z,37.04
2022-10-12T13:25:33.754Z,37.04
2022-10-12T13:28:04.369Z,37.45
2022-10-12T13:30:46.998Z,38.03
2022-10-12T13:33:32.354Z,37.42
2022-10-12T13:36:08.174Z,37.36
2022-10-12T13:38:38.658Z,38.05
2022-10-12T13:41:10.163Z,38.03
2022-10-12T13:43:53.063Z,37.55
2022-10-12T13:46:46.984Z,37.12
2022-10-12T13:49:18.018Z,37.19
2022-10-12T13:51:54.842Z,37.71
2022-10-12T13:54:26.400Z,37.35
2022-10-12T13:57:03.567Z,37.17
2022-10-12T13:59:36.505Z,37.38
2022-10-12T14:02:22.494Z,37.19
2022-10-12T14:04:53.847Z,37.61
2022-10-12T14:07:44.941Z,37.59
2022-10-12T14:10:19.130Z,36.95
2022-10-12T14:12:49.735Z,37.09
2022-10-12T14:15:17.715Z,37.31
2022-10-12T14:17:48.250Z,36.32
2022-10-12T14:20:37.650Z,37.34
2022-10-12T14:23:20.527Z,36.90
2022-10-12T14:25:54.120Z,36.92
2022-10-12T14:28:36.937Z,36.94
2022-10-12T14:31:04.476Z,38.32
2022-10-12T14:33:33.127Z,38.59
2022-10-12T14:36:22.339Z,38.25
2022-10-12T14:38:52.500Z,38.49
2022-10-12T14:41:36.300Z,38.53
2022-10-12T14:44:16.213Z,38.74
2022-10-12T14:46:54.227Z,38.17
2022-10-12T14:49:25.252Z,38.58
2022-10-12T14:51:55.069Z,38.88
2022-10-12T14:54:22.854Z,39.04
2022-10-12T14:56:50.906Z,39.46
2022-10-12T14:59:18.549Z,39.60
2022-10-12T15:01:51.258Z,40.09
2022-10-12T15:04:19.197Z,39.76
2022-10-12T15:06:51.079Z,40.23
2022-10-12T15:09:18.850Z,39.79
2022-10-12T15:11:46.685Z,39.42
2022-10-12T15:14:15.057Z,40.21
2022-10-12T15:16:42.887Z,40.13
2022-10-12T15:19:11.784Z,40.85
2022-10-12T15:21:40.234Z,41.36
2022-10-12T15:24:12.821Z,41.98
2022-10-12T15:26:43.807Z,42.66
2022-10-12T15:29:11.996Z,44.37
2022-10-12T15:31:40.496Z,44.99
2022-10-12T15:34:13.696Z,46.19
2022-10-12T15:36:42.233Z,45.90
2022-10-12T15:39:11.249Z,46.76
2022-10-12T15:41:39.734Z,46.84
2022-10-12T15:44:11.269Z,46.76
2022-10-12T15:46:42.345Z,47.63
2022-10-12T15:49:12.661Z,47.85
2022-10-12T15:51:49.730Z,47.95
2022-10-12T15:54:17.370Z,47.93
2022-10-12T15:56:46.078Z,49.24
2022-10-12T15:59:14.711Z,48.00
2022-10-12T16:01:45.104Z,48.34
2022-10-12T16:04:15.770Z,47.91
2022-10-12T16:06:43.776Z,47.67
2022-10-12T16:09:11.939Z,47.53
2022-10-12T16:11:39.715Z,47.96
2022-10-12T16:14:11.169Z,48.10
2022-10-12T16:16:41.792Z,48.36
2022-10-12T16:19:09.734Z,48.49
2022-10-12T16:21:38.008Z,49.42
2022-10-12T16:24:06.317Z,49.50
2022-10-12T16:26:33.824Z,50.14
2022-10-12T16:29:02.024Z,51.07
2022-10-12T16:31:30.626Z,51.07
2022-10-12T16:33:58.960Z,50.89
2022-10-12T16:36:26.618Z,50.77
2022-10-12T16:38:54.866Z,51.23
2022-10-12T16:41:22.459Z,51.00
2022-10-12T16:43:50.301Z,51.95
2022-10-12T16:46:18.297Z,51.99
2022-10-12T16:48:46.137Z,52.50
2022-10-12T16:51:13.793Z,52.97
2022-10-12T16:53:42.516Z,52.61
2022-10-12T16:56:10.246Z,53.35
2022-10-12T16:58:37.732Z,54.09
2022-10-12T17:01:13.006Z,53.61
2022-10-12T17:03:40.636Z,53.57
2022-10-12T17:06:09.455Z,53.31
2022-10-12T17:08:39.306Z,53.46
2022-10-12T17:11:08.904Z,53.74
2022-10-12T17:13:38.563Z,53.33
2022-10-12T17:16:27.040Z,53.81
2022-10-12T17:18:59.189Z,54.27
2022-10-12T17:21:27.890Z,55.65
2022-10-12T17:23:59.657Z,54.13
2022-10-12T17:26:27.804Z,54.06
2022-10-12T17:28:55.627Z,53.98
2022-10-12T17:31:24.148Z,54.20
2022-10-12T17:33:52.434Z,54.71
2022-10-12T17:36:22.330Z,55.33
2022-10-12T17:38:57.905Z,54.67
2022-10-12T17:41:26.470Z,54.91
2022-10-12T17:43:55.430Z,55.75
2022-10-12T17:46:23.201Z,56.37
2022-10-12T17:48:51.073Z,56.86
2022-10-12T17:51:19.312Z,56.43
2022-10-12T17:53:47.256Z,56.84
2022-10-12T17:56:17.098Z,56.98
2022-10-12T17:58:45.349Z,56.90
2022-10-12T18:01:15.941Z,57.23
2022-10-12T18:03:46.774Z,58.10
2022-10-12T18:06:17.610Z,58.04
2022-10-12T18:08:46.502Z,57.66
2022-10-12T18:11:15.503Z,59.29
2022-10-12T18:13:51.300Z,58.79
2022-10-12T18:16:24.673Z,58.34
2022-10-12T18:18:55.121Z,57.36
2022-10-12T18:21:27.052Z,57.18
2022-10-12T18:24:02.385Z,57.20
2022-10-12T18:26:33.537Z,57.10
2022-10-12T18:29:02.952Z,57.31
2022-10-12T18:31:33.413Z,57.27
2022-10-12T18:34:04.058Z,57.07
2022-10-12T18:36:33.963Z,56.97
2022-10-12T18:39:03.516Z,57.98
2022-10-12T18:41:31.282Z,57.58
2022-10-12T18:44:02.693Z,57.62
2022-10-12T18:46:34.600Z,57.00
2022-10-12T18:49:09.461Z,58.81
2022-10-12T18:51:40.593Z,58.92
2022-10-12T18:54:13.438Z,59.07
2022-10-12T18:56:42.101Z,58.89
2022-10-12T18:59:11.792Z,59.44
2022-10-12T19:01:42.003Z,58.83
2022-10-12T19:04:11.546Z,58.58
2022-10-12T19:06:42.826Z,58.97
2022-10-12T19:09:14.237Z,59.61
2022-10-12T19:11:42.938Z,60.03
2022-10-12T19:14:14.428Z,59.65
2022-10-12T19:16:43.376Z,59.42
2022-10-12T19:19:19.670Z,58.58
2022-10-12T19:21:51.332Z,58.88
2022-10-12T19:24:21.734Z,59.72
2022-10-12T19:26:51.345Z,59.19
2022-10-12T19:29:21.114Z,59.25
2022-10-12T19:31:50.584Z,59.08
2022-10-12T19:34:20.950Z,59.98
2022-10-12T19:36:49.027Z,58.93
2022-10-12T19:39:20.397Z,58.46
2022-10-12T19:41:49.793Z,58.64
2022-10-12T19:44:19.178Z,59.06
2022-10-12T19:46:52.350Z,58.71
2022-10-12T19:49:24.113Z,59.62
2022-10-12T19:51:51.821Z,58.75
2022-10-12T19:54:20.135Z,59.62
2022-10-12T19:56:48.611Z,59.81
2022-10-12T19:59:16.653Z,60.03
2022-10-12T20:01:48.114Z,59.92
2022-10-12T20:04:17.487Z,60.22
2022-10-12T20:06:45.727Z,60.19
2022-10-12T20:09:15.290Z,60.16
2022-10-12T20:11:44.199Z,59.67
2022-10-12T20:14:12.220Z,59.64
2022-10-12T20:16:42.713Z,60.05
2022-10-12T20:19:13.377Z,61.04
2022-10-12T20:21:42.779Z,61.16
2022-10-12T20:24:12.549Z,60.46
2022-10-12T20:26:41.643Z,61.37
2022-10-12T20:29:10.697Z,60.87
2022-10-12T20:31:39.331Z,60.29
2022-10-12T20:34:07.571Z,60.12
2022-10-12T20:36:35.514Z,60.27
2022-10-12T20:39:03.793Z,59.82
2022-10-12T20:41:31.608Z,60.21
2022-10-12T20:44:00.514Z,60.77
2022-10-12T20:46:29.670Z,59.90
2022-10-12T20:48:59.365Z,59.90
2022-10-12T20:51:30.951Z,60.09
2022-10-12T20:54:00.605Z,60.42
2022-10-12T20:56:30.843Z,59.84
2022-10-12T20:58:59.915Z,60.37
2022-10-12T21:01:31.143Z,60.03
2022-10-12T21:03:58.786Z,60.94
2022-10-12T21:06:29.326Z,61.15
2022-10-12T21:08:58.328Z,60.93
2022-10-12T21:11:26.866Z,61.70
2022-10-12T21:13:55.468Z,62.63
2022-10-12T21:16:24.222Z,62.51
2022-10-12T21:18:56.509Z,61.80
2022-10-12T21:21:26.334Z,62.51
2022-10-12T21:23:56.884Z,62.33
2022-10-12T21:26:26.559Z,62.23
2022-10-12T21:28:55.959Z,60.89
2022-10-12T21:31:28.220Z,60.14
2022-10-12T21:34:07.444Z,60.10
2022-10-12T21:36:36.549Z,60.71
2022-10-12T21:39:10.195Z,60.42
2022-10-12T21:41:37.700Z,62.11
2022-10-12T21:44:07.691Z,61.96
2022-10-12T21:46:36.408Z,61.64
2022-10-12T21:49:08.055Z,61.28
2022-10-12T21:51:36.774Z,60.49
2022-10-12T21:54:06.059Z,61.67
2022-10-12T21:56:36.060Z,62.64
2022-10-12T21:59:05.125Z,61.81
2022-10-12T22:01:39.879Z,61.72
2022-10-12T22:04:12.844Z,62.45
2022-10-12T22:06:43.324Z,62.26
2022-10-12T22:09:19.218Z,63.00
2022-10-12T22:11:53.904Z,62.56
2022-10-12T22:14:24.204Z,61.74
2022-10-12T22:16:58.945Z,62.08
2022-10-12T22:19:31.740Z,63.00
2022-10-12T22:22:01.487Z,62.20
2022-10-12T22:24:35.869Z,62.20
2022-10-12T22:27:06.185Z,63.54
2022-10-12T22:29:35.908Z,62.60
2022-10-12T22:32:10.167Z,62.37
2022-10-12T22:34:43.171Z,62.37
2022-10-12T22:37:12.617Z,61.75
2022-10-12T22:39:47.460Z,62.41
2022-10-12T22:42:16.541Z,62.06
2022-10-12T22:44:47.649Z,62.08
2022-10-12T22:47:16.507Z,62.29
2022-10-12T22:49:46.373Z,62.72
2022-10-12T22:52:16.079Z,61.03
2022-10-12T22:54:46.345Z,61.38
2022-10-12T22:57:17.703Z,61.40
2022-10-12T22:59:47.675Z,61.34
2022-10-12T23:02:20.563Z,61.31
2022-10-12T23:04:50.358Z,62.16
2022-10-12T23:07:23.011Z,62.42
2022-10-12T23:09:52.719Z,62.59
2022-10-12T23:12:23.127Z,62.81
2022-10-12T23:14:54.935Z,62.04
2022-10-12T23:17:24.559Z,61.78
2022-10-12T23:19:58.450Z,61.50
2022-10-12T23:22:30.244Z,61.35
2022-10-12T23:25:01.033Z,61.30
2022-10-12T23:27:33.473Z,60.53
2022-10-12T23:30:05.800Z,61.41
2022-10-12T23:32:36.105Z,61.48
2022-10-12T23:35:08.429Z,61.94
2022-10-12T23:37:44.034Z,61.28
2022-10-12T23:40:16.712Z,61.70
2022-10-12T23:42:45.841Z,61.82
2022-10-12T23:45:17.414Z,63.48
2022-10-12T23:47:51.074Z,63.32
2022-10-12T23:50:20.422Z,62.79
2022-10-12T23:52:51.343Z,63.15
2022-10-12T23:55:22.990Z,63.48
2022-10-12T23:57:53.585Z,63.99
